Time;durP1;ratioP1;P1;durP2;ratioP2;P2;SDS_P1;SDS_P2;PMS_P1;PMS_P2;Temp;Humidity;BMP_temperature;BMP_pressure;BME280_temperature;BME280_humidity;BME280_pressure;Samples;Min_cycle;Max_cycle;Signal;HPM_P1;HPM_P2
2023/01/23 07:35:55;;;;;;;5.33;3.13;;;4.20;99.90;6.00;103261.00;;;;4988804;28;20589;-69
2023/01/23 07:38:24;;;;;;;1.23;1.23;;;4.30;99.90;5.80;103252.00;;;;4995920;28;20188;-69
2023/01/23 07:40:51;;;;;;;1.83;1.73;;;4.10;99.90;5.90;103255.00;;;;4979740;28;20204;-69
2023/01/23 07:43:18;;;;;;;0.80;0.80;;;4.30;99.90;5.40;103252.00;;;;4996257;28;20252;-69
2023/01/23 07:45:44;;;;;;;0.63;0.63;;;3.90;99.90;5.80;103258.00;;;;4978906;28;20209;-69
2023/01/23 07:48:13;;;;;;;3.37;2.40;;;4.00;99.90;6.30;103262.00;;;;4996602;28;20210;-70
2023/01/23 07:50:42;;;;;;;1.50;1.37;;;4.10;99.90;6.10;103275.00;;;;4978922;28;20207;-69
2023/01/23 07:53:07;;;;;;;0.67;0.67;;;4.20;99.90;4.60;103273.00;;;;4979152;28;20271;-66
2023/01/23 07:55:37;;;;;;;1.07;0.90;;;3.80;99.90;4.80;103261.00;;;;4978562;28;20655;-66
2023/01/23 07:58:05;;;;;;;2.30;2.17;;;3.60;99.90;5.60;103268.00;;;;4996338;28;20267;-68
2023/01/23 08:00:33;;;;;;;8.57;4.60;;;3.80;99.90;4.80;103283.00;;;;4978718;28;20188;-69
2023/01/23 08:03:07;;;;;;;8.83;5.40;;;3.70;99.90;3.70;103271.00;;;;4978635;28;20263;-67
2023/01/23 08:05:35;;;;;;;5.20;4.10;;;3.40;99.90;4.20;103268.00;;;;4978318;28;20679;-67
2023/01/23 08:08:02;;;;;;;6.30;3.17;;;3.40;99.90;3.50;103262.00;;;;4962604;28;20242;-66
2023/01/23 08:10:28;;;;;;;5.87;3.40;;;3.20;99.90;3.70;103211.00;;;;4996136;28;20250;-66
2023/01/23 08:12:57;;;;;;;4.10;1.30;;;3.10;99.90;4.40;103272.00;;;;4978655;28;20212;-67
2023/01/23 08:15:23;;;;;;;1.60;1.53;;;3.30;99.90;4.40;103281.00;;;;4995901;28;20250;-67
2023/01/23 08:17:49;;;;;;;2.70;2.30;;;3.40;99.90;4.20;103282.00;;;;4988798;28;20590;-68
2023/01/23 08:20:15;;;;;;;5.10;3.60;;;3.40;99.90;4.20;103272.00;;;;4976578;28;20203;-67
2023/01/23 08:22:41;;;;;;;4.40;3.23;;;3.30;99.90;4.20;103256.00;;;;4994798;28;20210;-67
2023/01/23 08:25:09;;;;;;;4.53;2.50;;;3.30;99.90;4.40;103272.00;;;;4978046;28;20197;-69
2023/01/23 08:27:36;;;;;;;7.80;5.00;;;3.40;99.90;3.70;103284.00;;;;4978079;28;20193;-66
2023/01/23 08:30:04;;;;;;;2.30;2.20;;;3.20;99.90;3.90;103293.00;;;;4978645;28;20285;-66
2023/01/23 08:32:29;;;;;;;2.30;1.67;;;3.20;99.90;4.30;103290.00;;;;4995332;28;20208;-68
2023/01/23 08:34:58;;;;;;;0.87;0.87;;;3.30;99.90;4.70;103289.00;;;;4995219;28;20200;-68
2023/01/23 08:37:24;;;;;;;7.80;5.57;;;3.40;99.90;4.30;103285.00;;;;4991983;28;20244;-68
2023/01/23 08:39:51;;;;;;;2.97;2.07;;;3.50;99.90;4.60;103285.00;;;;4977984;28;20228;-66
2023/01/23 08:42:32;;;;;;;2.20;2.10;;;3.50;99.90;4.50;103284.00;;;;4995558;28;20204;-66
2023/01/23 08:45:04;;;;;;;4.87;3.13;;;3.50;99.90;4.30;103287.00;;;;4979909;28;20204;-65
2023/01/23 08:47:35;;;;;;;0.90;0.90;;;3.50;99.90;4.80;103291.00;;;;4992906;28;20231;-64
2023/01/23 08:50:15;;;;;;;1.47;1.37;;;3.50;99.90;5.50;103296.00;;;;4961833;28;20196;-65
2023/01/23 08:52:58;;;;;;;7.60;4.33;;;3.80;99.90;4.40;103295.00;;;;4977716;28;20255;-65
2023/01/23 08:56:02;;;;;;;1.90;1.90;;;3.60;99.90;5.50;103303.00;;;;4995040;28;20648;-66
2023/01/23 08:58:33;;;;;;;8.57;7.77;;;3.90;99.90;4.50;103313.00;;;;4977728;28;20203;-66
2023/01/23 09:01:02;;;;;;;0.80;0.80;;;3.70;99.90;4.90;103307.00;;;;4977568;28;20219;-67
2023/01/23 09:03:51;;;;;;;4.97;4.27;;;3.60;99.90;4.50;103320.00;;;;4992659;28;20203;-67
2023/01/23 09:06:37;;;;;;;0.90;0.90;;;3.60;99.90;4.30;103306.00;;;;4972631;28;20204;-67
2023/01/23 09:09:07;;;;;;;2.93;2.60;;;3.50;99.90;4.90;103301.00;;;;4977942;28;20200;-65
2023/01/23 09:11:42;;;;;;;2.03;1.73;;;3.60;99.90;5.50;103316.00;;;;4994786;28;20203;-66
2023/01/23 09:14:08;;;;;;;0.40;0.40;;;3.90;99.90;5.70;103323.00;;;;4977275;28;20199;-67
2023/01/23 09:16:39;;;;;;;0.40;0.40;;;4.00;99.90;5.20;103303.00;;;;4993770;28;20290;-67
2023/01/23 09:19:11;;;;;;;7.30;5.47;;;3.90;99.90;3.70;103319.00;;;;4977736;28;20193;-67
2023/01/23 09:21:46;;;;;;;7.23;3.83;;;3.50;99.90;4.00;103326.00;;;;4967335;28;20276;-67
2023/01/23 09:24:55;;;;;;;2.60;1.10;;;3.50;99.90;3.80;103318.00;;;;4977292;28;20200;-67
2023/01/23 09:27:45;;;;;;;5.50;4.27;;;3.40;99.90;4.00;103318.00;;;;4977069;28;20196;-67
2023/01/23 09:30:47;;;;;;;3.60;2.70;;;3.50;99.90;5.00;103332.00;;;;4969915;28;20193;-67
2023/01/23 09:33:27;;;;;;;5.47;4.27;;;3.60;99.90;4.30;103330.00;;;;4971221;28;20215;-67
2023/01/23 09:36:04;;;;;;;3.60;2.20;;;3.60;99.90;4.60;103324.00;;;;4983903;28;20211;-67
2023/01/23 09:38:59;;;;;;;2.97;1.40;;;3.70;99.90;5.70;103335.00;;;;4974884;28;20259;-69
2023/01/23 09:41:43;;;;;;;2.33;2.23;;;4.00;99.90;6.50;103307.00;;;;4971713;28;20200;-69
2023/01/23 09:44:46;;;;;;;2.93;1.67;;;4.50;99.90;5.50;103336.00;;;;4976442;28;20943;-67
2023/01/23 09:48:04;;;;;;;4.37;3.37;;;4.10;99.90;5.80;103363.00;;;;4946807;28;20195;-69
2023/01/23 09:50:37;;;;;;;3.93;3.00;;;4.30;99.90;6.90;103367.00;;;;4948880;28;20291;-69
2023/01/23 09:53:19;;;;;;;2.20;2.00;;;4.70;99.90;6.40;103351.00;;;;4959367;28;20340;-69
2023/01/23 09:56:22;;;;;;;3.10;2.50;;;4.70;99.90;6.30;103376.00;;;;4973659;28;20235;-69
2023/01/23 10:00:05;;;;;;;0.70;0.70;;;4.70;99.90;5.80;103360.00;;;;4977020;28;20199;-69
2023/01/23 10:03:41;;;;;;;3.83;3.63;;;4.30;99.90;6.20;103384.00;;;;4989951;28;21033;-69
2023/01/23 10:06:45;;;;;;;3.10;2.83;;;4.60;99.90;6.10;103388.00;;;;4976683;28;20205;-69
2023/01/23 10:09:39;;;;;;;4.40;3.60;;;4.50;99.90;6.30;103385.00;;;;4986651;28;20206;-69
2023/01/23 10:12:38;;;;;;;3.03;2.53;;;4.60;99.90;5.90;103340.00;;;;4991672;28;20551;-69
2023/01/23 10:15:23;;;;;;;1.47;1.37;;;4.40;99.90;5.80;103384.00;;;;4969708;28;20212;-69
2023/01/23 10:18:19;;;;;;;1.27;1.27;;;4.80;99.90;5.90;103364.00;;;;4993894;28;20207;-69
2023/01/23 10:33:42;;;;;;;3.03;2.63;;;3.70;99.90;4.90;103299.00;;;;5067120;28;20579;-68
2023/01/23 10:36:35;;;;;;;3.70;1.50;;;3.90;99.90;6.10;103319.00;;;;5022736;28;20197;-68
2023/01/23 10:39:15;;;;;;;1.53;1.43;;;4.40;99.90;6.30;103338.00;;;;5029686;28;20238;-68
2023/01/23 10:41:50;;;;;;;4.80;3.30;;;4.80;99.90;5.20;103346.00;;;;5033244;28;20220;-68
2023/01/23 10:44:19;;;;;;;8.43;7.60;;;4.60;99.90;4.60;103328.00;;;;5031510;28;20689;-68
2023/01/23 10:46:54;;;;;;;4.73;3.73;;;4.20;99.90;5.40;103336.00;;;;5045942;28;20196;-68
2023/01/23 10:50:07;;;;;;;6.43;5.73;;;4.20;99.90;5.30;103349.00;;;;5021422;28;20190;-69
2023/01/23 10:52:34;;;;;;;2.83;2.63;;;4.40;99.90;6.50;103331.00;;;;5021109;28;20281;-68
2023/01/23 10:55:01;;;;;;;0.43;0.43;;;4.50;99.90;7.10;103363.00;;;;5034902;28;20191;-67
2023/01/23 10:57:54;;;;;;;5.30;3.23;;;5.00;99.90;5.40;103352.00;;;;5041961;28;20214;-67
2023/01/23 11:00:34;;;;;;;3.97;3.67;;;4.80;99.90;5.80;103338.00;;;;5045506;28;20194;-67
2023/01/23 11:03:36;;;;;;;0.70;0.70;;;4.60;99.90;7.20;103291.00;;;;5044758;28;20317;-67
2023/01/23 11:06:28;;;;;;;5.37;4.47;;;4.90;99.90;6.70;103358.00;;;;5034410;28;20193;-68
2023/01/23 11:09:03;;;;;;;1.13;1.03;;;5.10;99.90;7.60;103343.00;;;;5053216;28;20195;-68
2023/01/23 11:11:46;;;;;;;3.87;3.57;;;5.30;99.90;5.50;103348.00;;;;5037446;28;20208;-69
2023/01/23 11:14:23;;;;;;;10.73;4.23;;;4.90;99.90;5.50;103352.00;;;;5044632;28;20185;-68
2023/01/23 11:17:11;;;;;;;13.17;8.53;;;4.70;99.90;5.00;103315.00;;;;5052294;28;20206;-67
2023/01/23 11:19:44;;;;;;;6.20;3.53;;;4.40;99.90;6.00;103326.00;;;;5040557;28;20194;-69
2023/01/23 11:22:35;;;;;;;2.00;1.90;;;4.60;99.90;5.60;103327.00;;;;5056905;28;20195;-69
2023/01/23 11:25:29;;;;;;;4.97;3.87;;;4.40;99.90;6.50;103334.00;;;;5043853;28;20175;-69
2023/01/23 11:28:02;;;;;;;2.43;2.33;;;4.60;99.90;7.10;103350.00;;;;5043656;28;20178;-69
2023/01/23 11:30:47;;;;;;;1.70;1.20;;;5.00;99.90;6.60;103360.00;;;;5054434;28;20196;-69
2023/01/23 11:33:25;;;;;;;1.63;1.57;;;5.00;99.90;7.10;103363.00;;;;5052526;28;20215;-69
2023/01/23 11:36:12;;;;;;;4.50;3.97;;;5.20;99.90;6.10;103354.00;;;;5061994;28;20189;-68
2023/01/23 11:38:48;;;;;;;2.13;1.93;;;4.90;99.90;6.30;103343.00;;;;5050658;28;20191;-68
2023/01/23 11:41:28;;;;;;;8.37;5.77;;;4.70;99.90;5.60;103348.00;;;;5044740;28;20197;-68
2023/01/23 11:44:08;;;;;;;6.70;6.00;;;4.60;99.90;5.30;103337.00;;;;5037330;28;20589;-68
2023/01/23 11:47:35;;;;;;;5.97;5.47;;;4.60;99.90;6.00;103281.00;;;;5041081;28;20646;-68
2023/01/23 11:50:19;;;;;;;3.13;1.33;;;4.60;99.90;6.10;103343.00;;;;5038840;28;20192;-68
2023/01/23 11:53:20;;;;;;;0.70;0.70;;;4.70;99.90;7.30;103334.00;;;;5030558;28;20215;-69
2023/01/23 11:56:11;;;;;;;7.47;6.63;;;5.00;99.90;5.60;103360.00;;;;5035331;28;20270;-69
2023/01/23 12:02:43;;;;;;;4.37;4.03;;;4.70;99.90;5.30;103330.00;;;;5029054;28;20262;-68
2023/01/23 12:06:08;;;;;;;4.87;1.73;;;4.50;99.90;6.50;103331.00;;;;5034509;28;20217;-68
2023/01/23 12:09:11;;;;;;;2.27;0.60;;;4.80;99.90;7.60;103356.00;;;;5039485;28;20674;-69
2023/01/23 12:12:06;;;;;;;4.13;3.63;;;5.20;99.90;6.60;103350.00;;;;5007716;28;20256;-69
2023/01/23 12:14:49;;;;;;;4.50;4.10;;;5.20;99.90;6.20;103352.00;;;;5038945;28;20205;-69
2023/01/23 12:17:59;;;;;;;0.40;0.40;;;5.10;99.90;6.80;103352.00;;;;5038759;28;20220;-68
2023/01/23 12:20:34;;;;;;;7.43;2.17;;;5.20;99.90;5.60;103342.00;;;;5038124;28;20212;-69
2023/01/23 12:23:22;;;;;;;4.60;2.70;;;4.90;99.90;5.70;103335.00;;;;5039465;28;20262;-69
2023/01/23 12:26:41;;;;;;;0.37;0.23;;;4.80;99.90;5.90;103337.00;;;;5033069;28;20605;-68
2023/01/23 12:29:22;;;;;;;1.67;1.57;;;4.80;99.90;6.20;103336.00;;;;5018945;28;20184;-69
2023/01/23 12:31:56;;;;;;;1.23;1.23;;;4.90;99.90;7.20;103348.00;;;;5036898;28;20705;-69
2023/01/23 12:34:37;;;;;;;5.67;3.97;;;5.10;99.90;6.00;103371.00;;;;5043003;28;20186;-69
2023/01/23 12:37:55;;;;;;;7.23;5.40;;;5.20;99.90;5.30;103331.00;;;;5029381;28;20290;-69
2023/01/23 12:40:51;;;;;;;4.67;4.37;;;4.60;99.90;5.50;103343.00;;;;5029423;28;20226;-69
2023/01/23 12:43:32;;;;;;;5.73;4.00;;;4.40;99.90;6.70;103354.00;;;;5035019;28;20656;-69
2023/01/23 12:46:49;;;;;;;3.57;3.23;;;4.80;99.90;6.70;103353.00;;;;5047794;28;20673;-69
2023/01/23 12:49:38;;;;;;;5.23;3.53;;;5.00;99.90;5.60;103283.00;;;;5045623;28;20647;-69
2023/01/23 12:53:23;;;;;;;1.57;1.47;;;4.70;99.90;7.20;103356.00;;;;5040579;28;20196;-69
2023/01/23 12:56:32;;;;;;;2.23;1.90;;;5.00;99.90;8.00;103377.00;;;;5033225;28;20683;-69
2023/01/23 12:59:24;;;;;;;0.80;0.80;;;5.50;99.90;7.40;103375.00;;;;4974086;28;20682;-69
2023/01/23 13:02:29;;;;;;;0.20;0.20;;;5.60;99.90;6.50;103354.00;;;;4996462;28;20212;-69
2023/01/23 13:06:01;;;;;;;3.10;2.87;;;5.10;99.90;6.40;103356.00;;;;5008710;28;20227;-69
2023/01/23 13:09:12;;;;;;;2.30;2.07;;;5.00;99.90;7.20;103359.00;;;;4913551;29;20204;-69
2023/01/23 13:12:06;;;;;;;1.97;1.87;;;5.10;99.90;5.80;103288.00;;;;4913109;29;20226;-69
2023/01/23 13:21:59;;;;;;;6.10;5.47;;;4.50;99.90;5.10;103343.00;;;;4898267;29;20686;-69
2023/01/23 13:26:14;;;;;;;5.73;5.10;;;4.50;99.90;5.10;103322.00;;;;4866533;29;20287;-70
2023/01/23 13:29:24;;;;;;;6.40;4.87;;;4.40;99.90;5.10;103329.00;;;;4846078;29;20245;-68
2023/01/23 13:32:47;;;;;;;4.47;3.13;;;4.20;99.90;5.80;103344.00;;;;4865042;29;20240;-70
2023/01/23 13:39:21;;;;;;;1.40;1.27;;;4.50;99.90;4.80;103334.00;;;;4919208;28;20631;-70
2023/01/23 13:42:17;;;;;;;3.00;1.67;;;4.50;99.90;5.50;103331.00;;;;4958026;28;20220;-69
2023/01/23 13:45:36;;;;;;;6.07;4.53;;;4.50;99.90;6.10;103269.00;;;;4975729;28;20203;-70
2023/01/23 13:51:23;;;;;;;10.27;4.57;;;4.60;99.90;5.80;103346.00;;;;5027547;28;20195;-70
2023/01/23 13:57:21;;;;;;;4.80;3.50;;;4.80;99.90;6.00;103350.00;;;;5033114;28;20195;-69
2023/01/23 14:00:12;;;;;;;3.77;3.57;;;5.00;99.90;6.80;103368.00;;;;5033148;28;20201;-70
2023/01/23 14:05:35;;;;;;;2.00;1.90;;;5.00;99.90;5.50;103334.00;;;;5048996;28;20225;-70
2023/01/23 14:08:04;;;;;;;3.23;2.90;;;4.70;99.90;6.10;103333.00;;;;5046140;28;20216;-70
2023/01/23 14:10:34;;;;;;;4.33;3.27;;;4.80;99.90;6.20;103288.00;;;;5043356;28;20224;-70
2023/01/23 14:13:17;;;;;;;4.53;2.53;;;4.90;99.90;6.00;103328.00;;;;5033624;28;20239;-70
2023/01/23 14:16:23;;;;;;;2.73;2.10;;;4.90;99.90;6.40;103344.00;;;;5033489;28;20239;-70
2023/01/23 14:19:21;;;;;;;3.67;3.30;;;4.90;99.90;7.30;103352.00;;;;5028281;28;20218;-70
2023/01/23 14:22:13;;;;;;;8.80;4.40;;;5.30;99.90;6.50;103341.00;;;;5032276;28;20192;-69
2023/01/23 14:24:48;;;;;;;4.73;3.53;;;5.30;99.90;7.60;103355.00;;;;5037269;28;20205;-70
2023/01/23 14:27:36;;;;;;;2.47;1.93;;;5.40;99.90;7.30;103364.00;;;;5035393;28;20195;-69
2023/01/23 14:30:22;;;;;;;4.27;3.60;;;5.60;99.90;7.20;103353.00;;;;5020336;28;20262;-70
2023/01/23 14:32:49;;;;;;;2.80;2.60;;;5.50;99.90;7.10;103336.00;;;;5036511;28;20233;-69
2023/01/23 14:35:39;;;;;;;15.20;8.17;;;5.40;99.90;6.20;103329.00;;;;5038837;28;20212;-68
2023/01/23 14:38:29;;;;;;;6.10;3.70;;;5.20;99.90;7.00;103325.00;;;;5022115;28;20231;-68
2023/01/23 14:41:21;;;;;;;1.80;1.70;;;5.30;99.90;7.20;103319.00;;;;5045076;28;20185;-68
2023/01/23 14:43:53;;;;;;;6.30;2.30;;;5.40;99.90;7.00;103316.00;;;;5034829;28;20664;-68
2023/01/23 14:46:33;;;;;;;2.27;2.10;;;5.30;99.90;6.30;103306.00;;;;5036781;28;20322;-67
2023/01/23 14:48:59;;;;;;;5.53;3.83;;;5.20;99.90;6.30;103304.00;;;;5031402;28;20195;-67
2023/01/23 14:51:28;;;;;;;2.27;2.10;;;5.20;99.90;6.10;103298.00;;;;5037097;28;20191;-68
2023/01/23 14:54:02;;;;;;;8.47;4.50;;;5.00;99.90;6.20;103285.00;;;;5040164;28;20729;-68
2023/01/23 14:57:12;;;;;;;3.73;3.47;;;4.90;99.90;6.10;103300.00;;;;5051339;28;20202;-68
2023/01/23 15:00:17;;;;;;;8.40;6.37;;;5.20;99.90;5.70;103272.00;;;;5031137;28;20196;-68
2023/01/23 15:02:53;;;;;;;8.57;5.77;;;4.80;99.90;6.60;103286.00;;;;5030863;28;20629;-68
2023/01/23 15:05:44;;;;;;;7.10;4.20;;;5.00;99.90;6.80;103290.00;;;;5032285;28;20184;-68
2023/01/23 15:08:43;;;;;;;7.43;4.93;;;5.10;99.90;6.50;103292.00;;;;5031221;28;20202;-68
2023/01/23 15:11:12;;;;;;;8.07;6.80;;;5.10;99.90;6.90;103314.00;;;;5019304;28;20181;-68
2023/01/23 15:13:51;;;;;;;1.50;1.03;;;5.30;99.90;7.20;103327.00;;;;5029885;28;20610;-68
2023/01/23 15:16:25;;;;;;;0.50;0.50;;;5.40;99.90;7.00;103328.00;;;;5040298;28;20268;-68
2023/01/23 15:19:24;;;;;;;8.13;4.80;;;5.30;99.90;6.50;103263.00;;;;5033702;28;20189;-67
2023/01/23 15:22:06;;;;;;;1.00;1.00;;;5.10;99.90;6.80;103316.00;;;;5031515;28;20197;-67
2023/01/23 15:24:31;;;;;;;0.30;0.30;;;5.00;99.90;7.30;103326.00;;;;5044331;28;20696;-67
2023/01/23 15:27:03;;;;;;;2.90;2.00;;;5.20;99.90;7.60;103348.00;;;;5048554;28;20182;-68
2023/01/23 15:29:31;;;;;;;1.00;1.00;;;5.50;99.90;8.50;103355.00;;;;5040544;28;20713;-67
2023/01/23 15:31:57;;;;;;;6.30;4.70;;;5.90;99.90;6.10;103349.00;;;;5047059;28;20201;-67
2023/01/23 15:34:34;;;;;;;2.83;2.60;;;5.40;99.90;5.80;103331.00;;;;5032591;28;20215;-67
2023/01/23 15:37:29;;;;;;;3.63;3.30;;;4.90;99.90;5.70;103274.00;;;;5036269;28;20262;-67
2023/01/23 15:40:03;;;;;;;0.20;0.20;;;4.90;99.90;6.40;103341.00;;;;5036136;28;20200;-67
2023/01/23 15:42:34;;;;;;;1.27;1.17;;;4.90;99.90;6.40;103336.00;;;;5030881;28;20190;-67
2023/01/23 15:45:02;;;;;;;5.43;4.30;;;4.90;99.90;5.90;103338.00;;;;5059742;28;20332;-68
2023/01/23 15:47:30;;;;;;;3.77;3.30;;;4.90;99.90;6.00;103283.00;;;;5040341;28;20868;-67
2023/01/23 15:50:00;;;;;;;2.10;2.00;;;4.90;99.90;6.50;103350.00;;;;5041096;28;20213;-67
2023/01/23 15:52:27;;;;;;;9.33;6.93;;;5.00;99.90;5.00;103332.00;;;;5022886;28;20217;-67
2023/01/23 15:54:59;;;;;;;3.97;2.20;;;4.60;99.90;6.50;103339.00;;;;5039167;28;20268;-67
2023/01/23 15:57:28;;;;;;;0.83;0.83;;;4.90;99.90;6.80;103282.00;;;;5062773;28;20545;-67
2023/01/23 15:59:53;;;;;;;8.80;3.63;;;5.10;99.90;6.60;103332.00;;;;5044964;28;20179;-67
2023/01/23 16:02:22;;;;;;;1.70;1.60;;;5.00;99.90;5.90;103338.00;;;;5050853;28;20195;-67
2023/01/23 16:05:06;;;;;;;4.07;2.43;;;4.90;99.90;6.80;103342.00;;;;5045778;28;20229;-67
2023/01/23 16:08:28;;;;;;;3.33;2.73;;;5.10;99.90;5.90;103348.00;;;;5047796;28;20637;-67
2023/01/23 16:10:57;;;;;;;1.20;1.03;;;4.90;99.90;6.10;103350.00;;;;5042357;28;20184;-67
2023/01/23 16:13:38;;;;;;;6.77;3.93;;;4.90;99.90;6.70;103347.00;;;;5043504;28;20252;-67
2023/01/23 16:16:15;;;;;;;3.57;3.07;;;5.00;99.90;5.90;103290.00;;;;5021683;28;20184;-67
2023/01/23 16:18:41;;;;;;;3.77;3.10;;;4.80;99.90;6.90;103347.00;;;;5047651;28;20199;-67
2023/01/23 16:21:14;;;;;;;8.57;3.67;;;5.00;99.90;6.80;103353.00;;;;5045172;28;20589;-68
2023/01/23 16:23:40;;;;;;;2.57;1.90;;;5.20;99.90;6.80;103342.00;;;;5034252;28;20195;-67
2023/01/23 16:26:25;;;;;;;5.07;4.57;;;5.20;99.90;7.60;103350.00;;;;5038686;28;20184;-67
2023/01/23 16:28:53;;;;;;;3.50;2.93;;;5.40;99.90;6.80;103362.00;;;;5036693;28;20654;-67
2023/01/23 16:32:09;;;;;;;4.33;3.27;;;5.30;99.90;7.10;103367.00;;;;5033473;28;20176;-67
2023/01/23 16:34:37;;;;;;;1.47;1.37;;;5.20;99.90;7.20;103295.00;;;;5041213;28;20563;-67
2023/01/23 16:37:38;;;;;;;2.00;1.90;;;5.30;99.90;7.20;103376.00;;;;5018252;28;20177;-67
2023/01/23 16:40:42;;;;;;;5.10;2.90;;;5.20;99.90;6.80;103376.00;;;;5036520;28;20648;-67
2023/01/23 16:43:08;;;;;;;3.77;2.97;;;5.10;99.90;6.60;103373.00;;;;5045974;28;20284;-67
2023/01/23 16:45:34;;;;;;;1.47;1.37;;;5.20;99.90;6.60;103371.00;;;;5044738;28;20277;-67
2023/01/23 16:48:00;;;;;;;2.10;1.73;;;5.10;99.90;6.60;103360.00;;;;5042811;28;20188;-67
2023/01/23 16:50:46;;;;;;;3.13;2.67;;;5.00;99.90;6.80;103384.00;;;;5038112;28;20208;-67
2023/01/23 16:53:42;;;;;;;5.47;4.50;;;5.10;99.90;5.90;103336.00;;;;5023774;28;20215;-67
2023/01/23 16:56:34;;;;;;;6.30;1.83;;;4.90;99.90;6.50;103365.00;;;;5039459;28;20617;-67
2023/01/23 16:59:04;;;;;;;5.20;3.70;;;4.90;99.90;5.40;103352.00;;;;5040269;28;20228;-67
2023/01/23 17:01:36;;;;;;;7.33;5.47;;;4.60;99.90;5.20;103356.00;;;;5044000;28;20515;-67
2023/01/23 17:04:03;;;;;;;5.03;4.53;;;4.40;99.90;5.10;103305.00;;;;5045545;28;20191;-67
2023/01/23 17:06:30;;;;;;;3.53;3.00;;;4.40;99.90;5.10;103334.00;;;;5049747;28;20192;-65
2023/01/23 17:08:57;;;;;;;3.43;1.63;;;4.40;99.90;5.30;103350.00;;;;5042172;28;20199;-65
2023/01/23 17:11:56;;;;;;;4.00;3.70;;;4.40;99.90;5.40;103352.00;;;;5033527;28;20197;-65
2023/01/23 17:14:27;;;;;;;1.30;1.30;;;4.40;99.90;6.20;103334.00;;;;5021348;28;20193;-67
2023/01/23 17:17:11;;;;;;;6.20;2.17;;;4.60;99.90;6.60;103359.00;;;;5030542;28;20594;-68
2023/01/23 17:19:41;;;;;;;4.33;3.03;;;4.90;99.90;6.00;103375.00;;;;5025942;28;20270;-74
2023/01/23 17:22:19;;;;;;;0.87;0.70;;;4.80;99.90;6.20;103317.00;;;;5031812;28;20242;-75
2023/01/23 17:25:02;;;;;;;0.70;0.70;;;4.80;99.90;5.80;103368.00;;;;5044507;28;20196;-65
2023/01/23 17:27:56;;;;;;;1.57;1.47;;;4.60;99.90;6.80;103378.00;;;;5040684;28;20279;-67
2023/01/23 17:30:24;;;;;;;4.73;4.17;;;4.90;99.90;6.90;103390.00;;;;5036293;28;20215;-67
2023/01/23 17:32:56;;;;;;;2.77;2.43;;;5.00;99.90;7.60;103382.00;;;;5042079;28;20212;-67
2023/01/23 17:35:31;;;;;;;4.73;2.97;;;5.30;99.90;7.30;103414.00;;;;5032427;28;20651;-67
2023/01/23 17:37:58;;;;;;;2.97;2.57;;;5.30;99.90;7.40;103398.00;;;;5020389;28;20642;-67
2023/01/23 17:40:24;;;;;;;2.93;2.73;;;5.30;99.90;7.40;103408.00;;;;5017720;28;20197;-67
2023/01/23 17:42:59;;;;;;;3.10;1.90;;;5.40;99.90;7.00;103410.00;;;;5039651;28;20224;-67
2023/01/23 17:45:47;;;;;;;1.33;1.33;;;5.20;99.90;7.10;103414.00;;;;5035882;28;20220;-67
2023/01/23 17:48:28;;;;;;;3.27;3.07;;;5.30;99.90;7.00;103398.00;;;;5045474;28;20179;-67
2023/01/23 17:51:17;;;;;;;3.43;3.13;;;5.10;99.90;5.50;103408.00;;;;5027210;28;20666;-67
2023/01/23 17:53:43;;;;;;;2.83;2.63;;;4.90;99.90;6.00;103399.00;;;;5017966;28;20198;-67
2023/01/23 17:56:23;;;;;;;3.70;2.13;;;4.80;99.90;6.80;103385.00;;;;5038827;28;20198;-67
2023/01/23 17:58:49;;;;;;;3.00;2.73;;;4.80;99.90;6.60;103382.00;;;;5044185;28;20280;-67
2023/01/23 18:01:34;;;;;;;2.63;1.43;;;4.90;99.90;7.20;103415.00;;;;5043417;28;20279;-67
2023/01/23 18:04:20;;;;;;;2.73;2.40;;;5.10;99.90;6.90;103411.00;;;;5029550;28;20581;-67
2023/01/23 18:06:46;;;;;;;2.13;2.00;;;5.00;99.90;7.50;103422.00;;;;5036864;28;20688;-67
2023/01/23 18:09:27;;;;;;;6.63;5.43;;;5.20;99.90;6.10;103412.00;;;;5049995;28;20269;-67
2023/01/23 18:12:06;;;;;;;1.03;1.03;;;4.90;99.90;7.10;103437.00;;;;5031602;28;20219;-67
2023/01/23 18:15:51;;;;;;;2.33;1.90;;;5.10;99.90;6.20;103425.00;;;;5030347;28;20192;-67
2023/01/23 18:18:38;;;;;;;1.57;1.47;;;5.00;99.90;7.20;103434.00;;;;5034539;28;20226;-67
2023/01/23 18:21:23;;;;;;;4.23;3.10;;;5.10;99.90;7.90;103441.00;;;;5037781;28;20274;-67
2023/01/23 18:24:09;;;;;;;6.63;4.23;;;5.40;99.90;6.80;103451.00;;;;5018843;28;20194;-67
2023/01/23 18:27:14;;;;;;;2.93;2.23;;;5.40;99.90;6.10;103428.00;;;;5038750;28;20181;-67
2023/01/23 18:30:10;;;;;;;5.33;4.53;;;4.80;99.90;5.50;103428.00;;;;5037359;28;20199;-67
2023/01/23 18:33:08;;;;;;;5.00;2.80;;;4.70;99.90;5.60;103432.00;;;;5042174;28;20308;-67
2023/01/23 18:36:02;;;;;;;2.37;2.23;;;4.70;99.90;5.80;103427.00;;;;5043370;28;20276;-64
2023/01/23 18:39:11;;;;;;;0.53;0.53;;;4.40;99.90;6.80;103432.00;;;;5037286;28;20187;-64
2023/01/23 18:42:15;;;;;;;3.57;3.30;;;4.70;99.90;7.00;103458.00;;;;5047755;28;20198;-67
2023/01/23 18:45:39;;;;;;;2.70;2.47;;;5.00;99.90;6.90;103454.00;;;;5036242;28;20237;-67
2023/01/23 18:48:43;;;;;;;5.23;3.73;;;5.00;99.90;5.50;103462.00;;;;5033924;28;20187;-67
2023/01/23 18:51:37;;;;;;;0.80;0.80;;;4.80;99.90;6.00;103463.00;;;;5032067;28;20182;-64
2023/01/23 18:54:46;;;;;;;1.03;1.03;;;4.60;99.90;5.90;103454.00;;;;5028986;28;20183;-64
2023/01/23 18:58:07;;;;;;;4.57;4.27;;;4.40;99.90;5.30;103451.00;;;;5041003;28;20187;-64
2023/01/23 19:00:43;;;;;;;3.20;2.83;;;4.40;99.90;6.50;103460.00;;;;5033805;28;20255;-67
2023/01/23 19:03:47;;;;;;;3.77;3.00;;;4.50;99.90;6.40;103470.00;;;;5039746;28;20178;-67
2023/01/23 19:06:37;;;;;;;4.03;3.63;;;4.60;99.90;7.10;103475.00;;;;5040386;28;20277;-67
2023/01/23 19:09:23;;;;;;;5.40;2.70;;;4.80;99.90;6.10;103470.00;;;;5036634;28;20188;-67
2023/01/23 19:12:31;;;;;;;4.93;3.93;;;4.60;99.90;5.50;103472.00;;;;5032904;28;20301;-67
2023/01/23 19:15:24;;;;;;;1.80;1.20;;;4.40;99.90;6.40;103482.00;;;;5046022;28;20607;-67
2023/01/23 19:18:40;;;;;;;4.70;4.17;;;4.50;99.90;5.90;103492.00;;;;5039141;28;20216;-67
2023/01/23 19:21:29;;;;;;;3.30;3.07;;;4.70;99.90;5.60;103425.00;;;;5039215;28;20228;-64
2023/01/23 19:24:43;;;;;;;0.20;0.20;;;4.20;99.90;6.10;103467.00;;;;5051699;28;20190;-64
2023/01/23 19:27:24;;;;;;;1.03;1.03;;;4.20;99.90;7.00;103492.00;;;;5026894;28;20187;-67
2023/01/23 19:30:34;;;;;;;0.83;0.70;;;4.50;99.90;7.30;103484.00;;;;5032520;28;20203;-67
2023/01/23 19:33:52;;;;;;;5.20;2.87;;;4.70;99.90;6.40;103489.00;;;;5045842;28;20234;-67
2023/01/23 19:36:54;;;;;;;3.13;2.63;;;5.00;99.90;6.10;103482.00;;;;5052061;28;20843;-67
2023/01/23 19:39:50;;;;;;;2.27;1.53;;;4.50;99.90;6.00;103415.00;;;;5045475;28;20179;-65
2023/01/23 19:42:52;;;;;;;3.90;2.90;;;4.50;99.90;5.30;103479.00;;;;5043520;28;20603;-64
2023/01/23 19:45:52;;;;;;;5.93;4.20;;;4.20;99.90;6.30;103483.00;;;;5043599;28;20255;-65
2023/01/23 19:49:13;;;;;;;3.50;2.77;;;4.20;99.90;5.30;103480.00;;;;5008816;28;20278;-64
2023/01/23 19:52:57;;;;;;;4.77;3.10;;;4.30;99.90;4.90;103470.00;;;;5041968;28;20202;-64
2023/01/23 19:55:34;;;;;;;6.70;4.60;;;4.10;99.90;5.00;103408.00;;;;5020449;28;20277;-64
2023/01/23 19:58:00;;;;;;;1.80;1.67;;;4.00;99.90;4.70;103461.00;;;;5033941;28;20174;-64
2023/01/23 20:00:30;;;;;;;5.83;5.33;;;3.90;99.90;5.50;103401.00;;;;5042777;28;20286;-65
2023/01/23 20:02:56;;;;;;;3.47;2.67;;;4.10;99.90;5.80;103479.00;;;;5045035;28;20277;-64
2023/01/23 20:05:23;;;;;;;3.40;2.20;;;4.10;99.90;6.10;103483.00;;;;5037362;28;20182;-64
2023/01/23 20:07:49;;;;;;;6.33;4.40;;;4.30;99.90;5.60;103481.00;;;;5044839;28;20198;-67
2023/01/23 20:10:15;;;;;;;6.27;3.93;;;4.20;99.90;5.70;103483.00;;;;5027246;28;20643;-65
2023/01/23 20:12:50;;;;;;;0.80;0.80;;;4.30;99.90;5.80;103473.00;;;;5049807;28;20334;-63
2023/01/23 20:15:24;;;;;;;13.50;5.90;;;4.10;99.90;5.40;103473.00;;;;5031061;28;20244;-64
2023/01/23 20:17:53;;;;;;;1.07;1.07;;;4.20;99.90;6.00;103484.00;;;;5044513;28;20187;-63
2023/01/23 20:20:36;;;;;;;1.77;1.67;;;4.20;99.90;5.70;103480.00;;;;5051698;28;20195;-64
2023/01/23 20:23:16;;;;;;;2.50;2.30;;;4.30;99.90;5.60;103462.00;;;;5047838;28;20185;-63
2023/01/23 20:25:59;;;;;;;5.23;4.20;;;4.20;99.90;5.20;103466.00;;;;5037805;28;20191;-65
2023/01/23 20:28:33;;;;;;;4.17;2.73;;;4.10;99.90;4.80;103468.00;;;;5020889;28;20210;-65
2023/01/23 20:31:16;;;;;;;2.80;2.30;;;3.90;99.90;5.10;103451.00;;;;5024718;28;20582;-65
2023/01/23 20:33:45;;;;;;;6.43;5.57;;;4.00;99.90;5.00;103466.00;;;;5041238;28;20564;-64